sensor_id;sensor_type;location;lat;lon;timestamp;temperature;humidity
25512;DHT22;13414;44.534;18.700;2023-12-20T00:01:05;0.70;99.90
25512;DHT22;13414;44.534;18.700;2023-12-20T00:03:32;0.60;1.00
25512;DHT22;13414;44.534;18.700;2023-12-20T00:06:00;0.50;1.00
25512;DHT22;13414;44.534;18.700;2023-12-20T00:08:27;0.60;99.90
25512;DHT22;13414;44.534;18.700;2023-12-20T00:10:55;0.70;99.90
25512;DHT22;13414;44.534;18.700;2023-12-20T00:13:24;0.70;99.90
25512;DHT22;13414;44.534;18.700;2023-12-20T00:15:52;0.70;1.00
25512;DHT22;13414;44.534;18.700;2023-12-20T00:18:19;0.60;1.00
25512;DHT22;13414;44.534;18.700;2023-12-20T00:20:47;0.50;1.00
25512;DHT22;13414;44.534;18.700;2023-12-20T00:23:16;0.50;1.00
25512;DHT22;13414;44.534;18.700;2023-12-20T00:25:45;0.50;1.00
25512;DHT22;13414;44.534;18.700;2023-12-20T00:28:13;0.40;99.90
25512;DHT22;13414;44.534;18.700;2023-12-20T00:30:42;0.40;1.00
25512;DHT22;13414;44.534;18.700;2023-12-20T00:33:10;0.40;1.00
25512;DHT22;13414;44.534;18.700;2023-12-20T00:35:37;0.40;99.90
25512;DHT22;13414;44.534;18.700;2023-12-20T00:38:05;0.40;1.00
25512;DHT22;13414;44.534;18.700;2023-12-20T00:40:33;0.40;1.00
25512;DHT22;13414;44.534;18.700;2023-12-20T00:43:00;0.40;1.00
25512;DHT22;13414;44.534;18.700;2023-12-20T00:45:28;0.40;99.90
25512;DHT22;13414;44.534;18.700;2023-12-20T00:47:57;0.40;1.00
25512;DHT22;13414;44.534;18.700;2023-12-20T00:50:25;0.50;1.00
25512;DHT22;13414;44.534;18.700;2023-12-20T00:52:52;0.50;1.00
25512;DHT22;13414;44.534;18.700;2023-12-20T00:55:20;0.50;1.00
25512;DHT22;13414;44.534;18.700;2023-12-20T00:57:48;0.40;1.00
25512;DHT22;13414;44.534;18.700;2023-12-20T01:00:16;0.40;1.00
25512;DHT22;13414;44.534;18.700;2023-12-20T01:02:43;0.30;1.00
25512;DHT22;13414;44.534;18.700;2023-12-20T01:05:15;0.30;1.00
25512;DHT22;13414;44.534;18.700;2023-12-20T01:07:42;0.30;99.90
25512;DHT22;13414;44.534;18.700;2023-12-20T01:10:10;0.20;1.00
25512;DHT22;13414;44.534;18.700;2023-12-20T01:12:38;0.10;1.00
25512;DHT22;13414;44.534;18.700;2023-12-20T01:15:06;0.00;99.90
25512;DHT22;13414;44.534;18.700;2023-12-20T01:17:33;0.00;1.00
25512;DHT22;13414;44.534;18.700;2023-12-20T01:20:01;0.00;1.00
25512;DHT22;13414;44.534;18.700;2023-12-20T01:22:30;0.00;1.00
25512;DHT22;13414;44.534;18.700;2023-12-20T01:24:57;0.00;99.90
25512;DHT22;13414;44.534;18.700;2023-12-20T01:27:25;-0.10;1.00
25512;DHT22;13414;44.534;18.700;2023-12-20T01:29:52;-0.10;1.00
25512;DHT22;13414;44.534;18.700;2023-12-20T01:32:20;-0.10;50.80
25512;DHT22;13414;44.534;18.700;2023-12-20T01:34:47;0.00;99.90
25512;DHT22;13414;44.534;18.700;2023-12-20T01:37:16;0.00;1.00
25512;DHT22;13414;44.534;18.700;2023-12-20T01:39:45;0.00;1.00
25512;DHT22;13414;44.534;18.700;2023-12-20T01:42:12;-0.10;71.60
25512;DHT22;13414;44.534;18.700;2023-12-20T01:44:40;-0.10;1.00
25512;DHT22;13414;44.534;18.700;2023-12-20T01:47:08;0.00;99.90
25512;DHT22;13414;44.534;18.700;2023-12-20T01:49:36;0.00;1.00
25512;DHT22;13414;44.534;18.700;2023-12-20T01:52:04;0.00;99.90
25512;DHT22;13414;44.534;18.700;2023-12-20T01:54:31;0.00;1.00
25512;DHT22;13414;44.534;18.700;2023-12-20T01:57:00;0.00;1.00
25512;DHT22;13414;44.534;18.700;2023-12-20T01:59:29;-0.10;1.00
25512;DHT22;13414;44.534;18.700;2023-12-20T02:01:57;-0.20;99.90
25512;DHT22;13414;44.534;18.700;2023-12-20T02:04:26;-0.10;1.00
25512;DHT22;13414;44.534;18.700;2023-12-20T02:06:55;-0.20;99.90
25512;DHT22;13414;44.534;18.700;2023-12-20T02:09:23;-0.30;99.90
25512;DHT22;13414;44.534;18.700;2023-12-20T02:11:51;-0.30;1.00
25512;DHT22;13414;44.534;18.700;2023-12-20T02:14:20;-0.20;1.00
25512;DHT22;13414;44.534;18.700;2023-12-20T02:16:48;-0.10;1.00
25512;DHT22;13414;44.534;18.700;2023-12-20T02:19:15;-0.10;1.00
25512;DHT22;13414;44.534;18.700;2023-12-20T02:21:46;-0.10;1.00
25512;DHT22;13414;44.534;18.700;2023-12-20T02:24:14;-0.10;99.90
25512;DHT22;13414;44.534;18.700;2023-12-20T02:26:41;-0.10;1.00
25512;DHT22;13414;44.534;18.700;2023-12-20T02:29:09;-0.10;99.90
25512;DHT22;13414;44.534;18.700;2023-12-20T02:31:37;-0.20;99.90
25512;DHT22;13414;44.534;18.700;2023-12-20T02:34:04;-0.10;99.90
25512;DHT22;13414;44.534;18.700;2023-12-20T02:36:32;-0.20;99.90
25512;DHT22;13414;44.534;18.700;2023-12-20T02:39:01;-0.10;99.90
25512;DHT22;13414;44.534;18.700;2023-12-20T02:41:28;-0.20;1.00
25512;DHT22;13414;44.534;18.700;2023-12-20T02:43:56;-0.20;28.40
25512;DHT22;13414;44.534;18.700;2023-12-20T02:46:23;-0.20;99.90
25512;DHT22;13414;44.534;18.700;2023-12-20T02:48:51;-0.20;99.90
25512;DHT22;13414;44.534;18.700;2023-12-20T02:51:18;-0.20;99.90
25512;DHT22;13414;44.534;18.700;2023-12-20T02:53:46;-0.30;1.00
25512;DHT22;13414;44.534;18.700;2023-12-20T02:56:15;-0.20;1.00
25512;DHT22;13414;44.534;18.700;2023-12-20T02:58:42;-0.20;1.00
25512;DHT22;13414;44.534;18.700;2023-12-20T03:01:10;-0.30;1.00
25512;DHT22;13414;44.534;18.700;2023-12-20T03:03:37;-0.30;1.00
25512;DHT22;13414;44.534;18.700;2023-12-20T03:06:05;-0.30;99.90
25512;DHT22;13414;44.534;18.700;2023-12-20T03:08:32;-0.30;1.00
25512;DHT22;13414;44.534;18.700;2023-12-20T03:11:00;-0.30;76.90
25512;DHT22;13414;44.534;18.700;2023-12-20T03:13:29;-0.40;99.90
25512;DHT22;13414;44.534;18.700;2023-12-20T03:15:57;-0.30;99.90
25512;DHT22;13414;44.534;18.700;2023-12-20T03:18:25;-0.30;99.90
25512;DHT22;13414;44.534;18.700;2023-12-20T03:20:54;-0.20;1.00
25512;DHT22;13414;44.534;18.700;2023-12-20T03:23:21;-0.20;99.90
25512;DHT22;13414;44.534;18.700;2023-12-20T03:25:49;-0.30;1.00
25512;DHT22;13414;44.534;18.700;2023-12-20T03:28:16;-0.30;1.00
25512;DHT22;13414;44.534;18.700;2023-12-20T03:30:46;-0.30;1.00
25512;DHT22;13414;44.534;18.700;2023-12-20T03:33:13;-0.40;1.00
25512;DHT22;13414;44.534;18.700;2023-12-20T03:35:41;-0.30;99.90
25512;DHT22;13414;44.534;18.700;2023-12-20T03:38:08;-0.30;17.00
25512;DHT22;13414;44.534;18.700;2023-12-20T03:40:36;-0.30;87.30
25512;DHT22;13414;44.534;18.700;2023-12-20T03:43:03;-0.30;1.00
25512;DHT22;13414;44.534;18.700;2023-12-20T03:45:31;-0.30;1.00
25512;DHT22;13414;44.534;18.700;2023-12-20T03:48:00;-0.30;1.00
25512;DHT22;13414;44.534;18.700;2023-12-20T03:50:29;-0.30;1.00
25512;DHT22;13414;44.534;18.700;2023-12-20T03:52:56;-0.30;1.00
25512;DHT22;13414;44.534;18.700;2023-12-20T03:55:24;-0.40;99.90
25512;DHT22;13414;44.534;18.700;2023-12-20T03:57:51;-0.50;99.90
25512;DHT22;13414;44.534;18.700;2023-12-20T04:00:19;-0.50;1.00
25512;DHT22;13414;44.534;18.700;2023-12-20T04:02:47;-0.50;1.00
25512;DHT22;13414;44.534;18.700;2023-12-20T04:05:16;-0.50;1.00
25512;DHT22;13414;44.534;18.700;2023-12-20T04:07:55;-0.50;1.00
25512;DHT22;13414;44.534;18.700;2023-12-20T04:10:22;-0.50;1.00
25512;DHT22;13414;44.534;18.700;2023-12-20T04:12:50;-0.50;1.00
25512;DHT22;13414;44.534;18.700;2023-12-20T04:15:17;-0.40;1.00
25512;DHT22;13414;44.534;18.700;2023-12-20T04:17:45;-0.40;99.90
25512;DHT22;13414;44.534;18.700;2023-12-20T04:20:12;-0.40;99.90
25512;DHT22;13414;44.534;18.700;2023-12-20T04:22:42;-0.40;99.90
25512;DHT22;13414;44.534;18.700;2023-12-20T04:25:09;-0.40;42.70
25512;DHT22;13414;44.534;18.700;2023-12-20T04:27:37;-0.40;1.00
25512;DHT22;13414;44.534;18.700;2023-12-20T04:30:05;-0.50;99.90
25512;DHT22;13414;44.534;18.700;2023-12-20T04:32:35;-0.60;1.00
25512;DHT22;13414;44.534;18.700;2023-12-20T04:35:02;-0.50;1.00
25512;DHT22;13414;44.534;18.700;2023-12-20T04:37:30;-0.40;1.00
25512;DHT22;13414;44.534;18.700;2023-12-20T04:39:59;-0.40;99.90
25512;DHT22;13414;44.534;18.700;2023-12-20T04:42:27;-0.50;2.00
25512;DHT22;13414;44.534;18.700;2023-12-20T04:44:55;-0.40;99.90
25512;DHT22;13414;44.534;18.700;2023-12-20T04:47:22;-0.40;99.90
25512;DHT22;13414;44.534;18.700;2023-12-20T04:49:50;-0.50;99.90
25512;DHT22;13414;44.534;18.700;2023-12-20T04:52:18;-0.50;99.90
25512;DHT22;13414;44.534;18.700;2023-12-20T04:54:46;-0.50;99.90
25512;DHT22;13414;44.534;18.700;2023-12-20T04:57:14;-0.50;1.00
25512;DHT22;13414;44.534;18.700;2023-12-20T04:59:42;-0.60;1.00
25512;DHT22;13414;44.534;18.700;2023-12-20T05:02:09;-0.60;1.00
25512;DHT22;13414;44.534;18.700;2023-12-20T05:04:37;-0.60;1.00
25512;DHT22;13414;44.534;18.700;2023-12-20T05:07:05;-0.60;1.00
25512;DHT22;13414;44.534;18.700;2023-12-20T05:09:32;-0.70;1.00
25512;DHT22;13414;44.534;18.700;2023-12-20T05:12:00;-0.70;1.00
25512;DHT22;13414;44.534;18.700;2023-12-20T05:14:29;-0.60;99.90
25512;DHT22;13414;44.534;18.700;2023-12-20T05:16:56;-0.60;99.90
25512;DHT22;13414;44.534;18.700;2023-12-20T05:19:24;-0.50;1.00
25512;DHT22;13414;44.534;18.700;2023-12-20T05:21:52;-0.60;1.00
25512;DHT22;13414;44.534;18.700;2023-12-20T05:24:20;-0.60;1.00
25512;DHT22;13414;44.534;18.700;2023-12-20T05:26:47;-0.60;1.00
25512;DHT22;13414;44.534;18.700;2023-12-20T05:29:15;-0.60;1.00
25512;DHT22;13414;44.534;18.700;2023-12-20T05:31:44;-0.60;1.00
25512;DHT22;13414;44.534;18.700;2023-12-20T05:34:12;-0.50;1.00
25512;DHT22;13414;44.534;18.700;2023-12-20T05:36:39;-0.60;1.00
25512;DHT22;13414;44.534;18.700;2023-12-20T05:39:07;-0.60;1.00
25512;DHT22;13414;44.534;18.700;2023-12-20T05:41:34;-0.60;1.00
25512;DHT22;13414;44.534;18.700;2023-12-20T05:44:02;-0.50;15.50
25512;DHT22;13414;44.534;18.700;2023-12-20T05:46:30;-0.50;1.00
25512;DHT22;13414;44.534;18.700;2023-12-20T05:48:59;-0.50;1.00
25512;DHT22;13414;44.534;18.700;2023-12-20T05:51:26;-0.50;1.00
25512;DHT22;13414;44.534;18.700;2023-12-20T05:53:53;-0.50;1.00
25512;DHT22;13414;44.534;18.700;2023-12-20T05:56:21;-0.50;1.00
25512;DHT22;13414;44.534;18.700;2023-12-20T05:58:49;-0.50;1.00
25512;DHT22;13414;44.534;18.700;2023-12-20T06:01:16;-0.50;1.00
25512;DHT22;13414;44.534;18.700;2023-12-20T06:03:44;-0.50;1.00
25512;DHT22;13414;44.534;18.700;2023-12-20T06:06:13;-0.50;99.90
25512;DHT22;13414;44.534;18.700;2023-12-20T06:08:41;-0.60;99.90
25512;DHT22;13414;44.534;18.700;2023-12-20T06:11:09;-0.60;99.90
25512;DHT22;13414;44.534;18.700;2023-12-20T06:13:37;-0.60;99.90
25512;DHT22;13414;44.534;18.700;2023-12-20T06:16:06;-0.60;99.90
25512;DHT22;13414;44.534;18.700;2023-12-20T06:18:33;-0.60;99.90
25512;DHT22;13414;44.534;18.700;2023-12-20T06:21:03;-0.60;99.90
25512;DHT22;13414;44.534;18.700;2023-12-20T06:23:32;-0.60;99.90
25512;DHT22;13414;44.534;18.700;2023-12-20T06:25:59;-0.70;99.90
25512;DHT22;13414;44.534;18.700;2023-12-20T06:28:27;-0.70;99.90
25512;DHT22;13414;44.534;18.700;2023-12-20T06:30:54;-0.70;99.90
25512;DHT22;13414;44.534;18.700;2023-12-20T06:33:23;-0.70;99.90
25512;DHT22;13414;44.534;18.700;2023-12-20T06:35:50;-0.70;1.00
25512;DHT22;13414;44.534;18.700;2023-12-20T06:38:18;-0.80;1.00
25512;DHT22;13414;44.534;18.700;2023-12-20T06:40:48;-0.80;99.90
25512;DHT22;13414;44.534;18.700;2023-12-20T06:43:16;-0.70;1.00
25512;DHT22;13414;44.534;18.700;2023-12-20T06:45:44;-0.60;99.90
25512;DHT22;13414;44.534;18.700;2023-12-20T06:48:12;-0.50;1.00
25512;DHT22;13414;44.534;18.700;2023-12-20T06:50:39;-0.40;1.00
25512;DHT22;13414;44.534;18.700;2023-12-20T06:53:07;-0.30;1.00
25512;DHT22;13414;44.534;18.700;2023-12-20T06:55:35;-0.30;99.90
25512;DHT22;13414;44.534;18.700;2023-12-20T06:58:05;-0.40;99.90
25512;DHT22;13414;44.534;18.700;2023-12-20T07:00:33;-0.40;99.90
25512;DHT22;13414;44.534;18.700;2023-12-20T07:03:00;-0.30;49.30
25512;DHT22;13414;44.534;18.700;2023-12-20T07:05:28;-0.30;1.00
25512;DHT22;13414;44.534;18.700;2023-12-20T07:07:56;-0.30;1.00
25512;DHT22;13414;44.534;18.700;2023-12-20T07:10:23;-0.30;1.00
25512;DHT22;13414;44.534;18.700;2023-12-20T07:12:51;-0.20;1.00
25512;DHT22;13414;44.534;18.700;2023-12-20T07:15:22;-0.10;1.00
25512;DHT22;13414;44.534;18.700;2023-12-20T07:17:50;0.10;1.00
25512;DHT22;13414;44.534;18.700;2023-12-20T07:20:17;0.10;1.00
25512;DHT22;13414;44.534;18.700;2023-12-20T07:22:45;0.20;99.90
25512;DHT22;13414;44.534;18.700;2023-12-20T07:25:12;0.20;99.90
25512;DHT22;13414;44.534;18.700;2023-12-20T07:27:40;0.30;99.90
25512;DHT22;13414;44.534;18.700;2023-12-20T07:30:09;0.50;99.90
25512;DHT22;13414;44.534;18.700;2023-12-20T07:32:38;0.60;1.00
25512;DHT22;13414;44.534;18.700;2023-12-20T07:35:06;0.80;1.00
25512;DHT22;13414;44.534;18.700;2023-12-20T07:37:34;0.90;1.00
25512;DHT22;13414;44.534;18.700;2023-12-20T07:40:07;1.10;1.00
25512;DHT22;13414;44.534;18.700;2023-12-20T07:42:37;1.10;1.00
25512;DHT22;13414;44.534;18.700;2023-12-20T07:45:05;1.10;1.00
25512;DHT22;13414;44.534;18.700;2023-12-20T07:47:33;1.30;1.00
25512;DHT22;13414;44.534;18.700;2023-12-20T07:50:02;1.50;1.00
25512;DHT22;13414;44.534;18.700;2023-12-20T07:52:30;1.60;99.90
25512;DHT22;13414;44.534;18.700;2023-12-20T07:54:57;1.60;99.90
25512;DHT22;13414;44.534;18.700;2023-12-20T07:57:28;1.80;99.90
25512;DHT22;13414;44.534;18.700;2023-12-20T07:59:55;1.90;99.90
25512;DHT22;13414;44.534;18.700;2023-12-20T08:02:23;2.10;99.90
25512;DHT22;13414;44.534;18.700;2023-12-20T08:04:50;2.20;99.90
25512;DHT22;13414;44.534;18.700;2023-12-20T08:07:19;2.30;99.90
25512;DHT22;13414;44.534;18.700;2023-12-20T08:09:47;2.30;99.90
25512;DHT22;13414;44.534;18.700;2023-12-20T08:12:15;2.30;99.90
25512;DHT22;13414;44.534;18.700;2023-12-20T08:14:42;2.30;99.90
25512;DHT22;13414;44.534;18.700;2023-12-20T08:17:10;2.30;86.60
25512;DHT22;13414;44.534;18.700;2023-12-20T08:19:38;2.40;80.90
25512;DHT22;13414;44.534;18.700;2023-12-20T08:22:06;2.40;72.60
25512;DHT22;13414;44.534;18.700;2023-12-20T08:24:35;2.50;29.90
25512;DHT22;13414;44.534;18.700;2023-12-20T08:27:03;2.50;50.40
25512;DHT22;13414;44.534;18.700;2023-12-20T08:29:31;2.60;88.20
25512;DHT22;13414;44.534;18.700;2023-12-20T08:31:58;2.60;99.90
25512;DHT22;13414;44.534;18.700;2023-12-20T08:34:26;2.80;99.90
25512;DHT22;13414;44.534;18.700;2023-12-20T08:36:53;2.90;99.90
25512;DHT22;13414;44.534;18.700;2023-12-20T08:39:21;2.90;99.90
25512;DHT22;13414;44.534;18.700;2023-12-20T08:41:50;3.00;99.90
25512;DHT22;13414;44.534;18.700;2023-12-20T08:44:21;3.00;99.90
25512;DHT22;13414;44.534;18.700;2023-12-20T08:46:52;3.10;99.90
25512;DHT22;13414;44.534;18.700;2023-12-20T08:49:19;3.20;99.90
25512;DHT22;13414;44.534;18.700;2023-12-20T08:52:05;3.30;1.00
25512;DHT22;13414;44.534;18.700;2023-12-20T08:54:47;3.50;1.00
25512;DHT22;13414;44.534;18.700;2023-12-20T08:57:28;3.70;1.00
25512;DHT22;13414;44.534;18.700;2023-12-20T09:00:00;3.80;1.00
25512;DHT22;13414;44.534;18.700;2023-12-20T09:02:29;4.00;1.00
25512;DHT22;13414;44.534;18.700;2023-12-20T09:04:57;4.10;1.00
25512;DHT22;13414;44.534;18.700;2023-12-20T09:07:26;4.20;1.00
25512;DHT22;13414;44.534;18.700;2023-12-20T09:09:58;4.30;1.00
25512;DHT22;13414;44.534;18.700;2023-12-20T09:12:27;4.40;1.00
25512;DHT22;13414;44.534;18.700;2023-12-20T09:14:55;4.40;99.90
25512;DHT22;13414;44.534;18.700;2023-12-20T09:17:22;4.60;99.90
25512;DHT22;13414;44.534;18.700;2023-12-20T09:19:49;4.70;99.90
25512;DHT22;13414;44.534;18.700;2023-12-20T09:22:18;4.80;99.90
25512;DHT22;13414;44.534;18.700;2023-12-20T09:24:52;4.90;99.90
25512;DHT22;13414;44.534;18.700;2023-12-20T09:27:23;5.10;99.90
25512;DHT22;13414;44.534;18.700;2023-12-20T09:29:55;5.20;99.90
25512;DHT22;13414;44.534;18.700;2023-12-20T09:32:27;5.30;99.90
25512;DHT22;13414;44.534;18.700;2023-12-20T09:34:55;5.40;99.90
25512;DHT22;13414;44.534;18.700;2023-12-20T09:37:26;5.60;5.40
25512;DHT22;13414;44.534;18.700;2023-12-20T09:39:54;5.70;1.00
25512;DHT22;13414;44.534;18.700;2023-12-20T09:42:33;5.80;1.00
25512;DHT22;13414;44.534;18.700;2023-12-20T09:45:08;5.90;1.00
25512;DHT22;13414;44.534;18.700;2023-12-20T09:47:37;6.10;1.00
25512;DHT22;13414;44.534;18.700;2023-12-20T09:50:06;6.10;1.00
25512;DHT22;13414;44.534;18.700;2023-12-20T09:52:36;6.20;1.00
25512;DHT22;13414;44.534;18.700;2023-12-20T09:55:07;6.20;1.00
25512;DHT22;13414;44.534;18.700;2023-12-20T09:57:41;6.20;1.00
25512;DHT22;13414;44.534;18.700;2023-12-20T10:00:13;6.30;1.00
25512;DHT22;13414;44.534;18.700;2023-12-20T10:02:50;6.40;1.00
25512;DHT22;13414;44.534;18.700;2023-12-20T10:05:26;6.60;1.00
25512;DHT22;13414;44.534;18.700;2023-12-20T10:07:56;6.70;1.00
25512;DHT22;13414;44.534;18.700;2023-12-20T10:10:24;6.90;1.00
25512;DHT22;13414;44.534;18.700;2023-12-20T10:13:03;7.00;1.00
25512;DHT22;13414;44.534;18.700;2023-12-20T10:15:33;7.20;1.00
25512;DHT22;13414;44.534;18.700;2023-12-20T10:18:00;7.30;1.00
25512;DHT22;13414;44.534;18.700;2023-12-20T10:20:30;7.50;1.00
25512;DHT22;13414;44.534;18.700;2023-12-20T10:22:59;7.70;1.00
25512;DHT22;13414;44.534;18.700;2023-12-20T10:25:27;7.90;1.00
25512;DHT22;13414;44.534;18.700;2023-12-20T10:28:12;8.00;1.00
25512;DHT22;13414;44.534;18.700;2023-12-20T10:30:47;8.00;1.00
25512;DHT22;13414;44.534;18.700;2023-12-20T10:33:23;8.00;1.00
25512;DHT22;13414;44.534;18.700;2023-12-20T10:36:05;8.00;1.00
25512;DHT22;13414;44.534;18.700;2023-12-20T10:38:46;8.00;1.00
25512;DHT22;13414;44.534;18.700;2023-12-20T10:41:21;7.90;1.00
25512;DHT22;13414;44.534;18.700;2023-12-20T10:44:00;7.80;1.00
25512;DHT22;13414;44.534;18.700;2023-12-20T10:46:30;7.80;1.00
25512;DHT22;13414;44.534;18.700;2023-12-20T10:49:01;7.80;1.00
25512;DHT22;13414;44.534;18.700;2023-12-20T10:51:32;7.80;1.00
25512;DHT22;13414;44.534;18.700;2023-12-20T10:54:02;7.80;1.00
25512;DHT22;13414;44.534;18.700;2023-12-20T10:56:32;7.80;1.00
25512;DHT22;13414;44.534;18.700;2023-12-20T10:59:03;7.80;1.00
25512;DHT22;13414;44.534;18.700;2023-12-20T11:01:38;7.80;1.00
25512;DHT22;13414;44.534;18.700;2023-12-20T11:04:11;7.90;1.00
25512;DHT22;13414;44.534;18.700;2023-12-20T11:06:47;7.90;1.00
25512;DHT22;13414;44.534;18.700;2023-12-20T11:09:22;7.90;1.00
25512;DHT22;13414;44.534;18.700;2023-12-20T11:12:02;7.90;1.00
25512;DHT22;13414;44.534;18.700;2023-12-20T11:14:36;8.00;1.00
25512;DHT22;13414;44.534;18.700;2023-12-20T11:17:11;8.00;1.00
25512;DHT22;13414;44.534;18.700;2023-12-20T11:20:04;8.00;1.00
25512;DHT22;13414;44.534;18.700;2023-12-20T11:22:33;8.10;1.00
25512;DHT22;13414;44.534;18.700;2023-12-20T11:25:05;8.10;1.00
25512;DHT22;13414;44.534;18.700;2023-12-20T11:27:34;8.10;1.00
25512;DHT22;13414;44.534;18.700;2023-12-20T11:30:04;8.10;1.00
25512;DHT22;13414;44.534;18.700;2023-12-20T11:32:37;8.10;1.00
25512;DHT22;13414;44.534;18.700;2023-12-20T11:35:18;8.30;99.90
25512;DHT22;13414;44.534;18.700;2023-12-20T11:37:46;8.30;99.90
25512;DHT22;13414;44.534;18.700;2023-12-20T11:40:16;8.40;99.90
25512;DHT22;13414;44.534;18.700;2023-12-20T11:42:45;8.50;99.90
25512;DHT22;13414;44.534;18.700;2023-12-20T11:45:15;8.60;99.90
25512;DHT22;13414;44.534;18.700;2023-12-20T11:47:46;8.70;99.90
25512;DHT22;13414;44.534;18.700;2023-12-20T11:50:15;8.90;99.90
25512;DHT22;13414;44.534;18.700;2023-12-20T11:52:43;8.90;99.90
25512;DHT22;13414;44.534;18.700;2023-12-20T11:55:16;9.00;99.90
25512;DHT22;13414;44.534;18.700;2023-12-20T11:57:44;9.10;99.90
25512;DHT22;13414;44.534;18.700;2023-12-20T12:00:14;9.20;99.90
25512;DHT22;13414;44.534;18.700;2023-12-20T12:02:50;9.30;99.90
25512;DHT22;13414;44.534;18.700;2023-12-20T12:05:22;9.40;99.90
25512;DHT22;13414;44.534;18.700;2023-12-20T12:07:49;9.50;99.90
25512;DHT22;13414;44.534;18.700;2023-12-20T12:10:20;9.50;99.90
25512;DHT22;13414;44.534;18.700;2023-12-20T12:12:48;9.50;99.90
25512;DHT22;13414;44.534;18.700;2023-12-20T12:15:16;9.40;99.90
25512;DHT22;13414;44.534;18.700;2023-12-20T12:17:53;9.50;99.90
25512;DHT22;13414;44.534;18.700;2023-12-20T12:20:21;9.50;99.90
25512;DHT22;13414;44.534;18.700;2023-12-20T12:22:58;9.40;99.90
25512;DHT22;13414;44.534;18.700;2023-12-20T12:25:28;9.40;99.90
25512;DHT22;13414;44.534;18.700;2023-12-20T12:28:05;9.40;99.90
25512;DHT22;13414;44.534;18.700;2023-12-20T12:30:41;9.40;99.90
25512;DHT22;13414;44.534;18.700;2023-12-20T12:33:20;9.40;99.90
25512;DHT22;13414;44.534;18.700;2023-12-20T12:35:50;9.30;99.90
25512;DHT22;13414;44.534;18.700;2023-12-20T12:41:42;9.30;99.90
25512;DHT22;13414;44.534;18.700;2023-12-20T12:44:10;9.40;99.90
25512;DHT22;13414;44.534;18.700;2023-12-20T12:46:37;9.50;99.90
25512;DHT22;13414;44.534;18.700;2023-12-20T12:49:08;9.60;99.90
25512;DHT22;13414;44.534;18.700;2023-12-20T12:51:38;9.60;99.90
25512;DHT22;13414;44.534;18.700;2023-12-20T12:54:05;9.70;99.90
25512;DHT22;13414;44.534;18.700;2023-12-20T12:56:33;9.80;99.90
25512;DHT22;13414;44.534;18.700;2023-12-20T12:59:04;9.90;99.90
25512;DHT22;13414;44.534;18.700;2023-12-20T13:01:40;10.00;99.90
25512;DHT22;13414;44.534;18.700;2023-12-20T13:04:09;10.10;99.90
25512;DHT22;13414;44.534;18.700;2023-12-20T13:06:37;10.10;99.90
25512;DHT22;13414;44.534;18.700;2023-12-20T13:09:05;10.20;99.90
25512;DHT22;13414;44.534;18.700;2023-12-20T13:11:33;10.20;99.90
25512;DHT22;13414;44.534;18.700;2023-12-20T13:14:03;10.30;99.90
25512;DHT22;13414;44.534;18.700;2023-12-20T13:16:31;10.30;99.90
25512;DHT22;13414;44.534;18.700;2023-12-20T13:19:00;10.30;99.90
25512;DHT22;13414;44.534;18.700;2023-12-20T13:21:29;10.30;99.90
25512;DHT22;13414;44.534;18.700;2023-12-20T13:23:59;10.30;99.90
25512;DHT22;13414;44.534;18.700;2023-12-20T13:26:27;10.20;99.90
25512;DHT22;13414;44.534;18.700;2023-12-20T13:28:54;10.20;99.90
25512;DHT22;13414;44.534;18.700;2023-12-20T13:31:22;10.20;99.90
25512;DHT22;13414;44.534;18.700;2023-12-20T13:33:49;10.20;99.90
25512;DHT22;13414;44.534;18.700;2023-12-20T13:36:18;10.10;99.90
25512;DHT22;13414;44.534;18.700;2023-12-20T13:38:48;10.10;99.90
25512;DHT22;13414;44.534;18.700;2023-12-20T13:41:16;10.10;99.90
25512;DHT22;13414;44.534;18.700;2023-12-20T13:43:54;10.10;99.90
25512;DHT22;13414;44.534;18.700;2023-12-20T13:46:21;10.00;99.90
25512;DHT22;13414;44.534;18.700;2023-12-20T13:48:49;10.10;99.90
25512;DHT22;13414;44.534;18.700;2023-12-20T13:51:17;10.00;99.90
25512;DHT22;13414;44.534;18.700;2023-12-20T13:53:48;10.00;99.90
25512;DHT22;13414;44.534;18.700;2023-12-20T13:56:15;10.00;99.90
25512;DHT22;13414;44.534;18.700;2023-12-20T13:58:44;10.00;99.90
25512;DHT22;13414;44.534;18.700;2023-12-20T14:01:12;10.20;99.90
25512;DHT22;13414;44.534;18.700;2023-12-20T14:03:39;10.30;90.90
25512;DHT22;13414;44.534;18.700;2023-12-20T14:06:07;10.50;1.00
25512;DHT22;13414;44.534;18.700;2023-12-20T14:08:35;10.50;1.00
25512;DHT22;13414;44.534;18.700;2023-12-20T14:11:08;10.60;1.00
25512;DHT22;13414;44.534;18.700;2023-12-20T14:13:36;10.50;1.00
25512;DHT22;13414;44.534;18.700;2023-12-20T14:16:04;10.50;1.00
25512;DHT22;13414;44.534;18.700;2023-12-20T14:18:33;10.60;1.00
25512;DHT22;13414;44.534;18.700;2023-12-20T14:21:00;10.60;1.00
25512;DHT22;13414;44.534;18.700;2023-12-20T14:23:28;10.50;1.00
25512;DHT22;13414;44.534;18.700;2023-12-20T14:25:56;10.50;1.00
25512;DHT22;13414;44.534;18.700;2023-12-20T14:28:26;10.50;1.00
25512;DHT22;13414;44.534;18.700;2023-12-20T14:30:53;10.40;1.00
25512;DHT22;13414;44.534;18.700;2023-12-20T14:33:22;10.40;1.00
25512;DHT22;13414;44.534;18.700;2023-12-20T14:35:51;10.40;1.00
25512;DHT22;13414;44.534;18.700;2023-12-20T14:38:18;10.40;1.00
25512;DHT22;13414;44.534;18.700;2023-12-20T14:40:46;10.30;1.00
25512;DHT22;13414;44.534;18.700;2023-12-20T14:43:13;10.20;1.00
25512;DHT22;13414;44.534;18.700;2023-12-20T14:45:44;10.20;1.00
25512;DHT22;13414;44.534;18.700;2023-12-20T14:48:13;10.20;1.00
25512;DHT22;13414;44.534;18.700;2023-12-20T14:50:41;10.20;1.00
25512;DHT22;13414;44.534;18.700;2023-12-20T14:53:09;10.20;1.00
25512;DHT22;13414;44.534;18.700;2023-12-20T14:55:36;10.10;1.00
25512;DHT22;13414;44.534;18.700;2023-12-20T14:58:05;10.10;1.00
25512;DHT22;13414;44.534;18.700;2023-12-20T15:00:33;10.10;1.00
25512;DHT22;13414;44.534;18.700;2023-12-20T15:03:03;10.00;1.00
25512;DHT22;13414;44.534;18.700;2023-12-20T15:05:32;10.00;1.00
25512;DHT22;13414;44.534;18.700;2023-12-20T15:08:00;9.80;1.00
25512;DHT22;13414;44.534;18.700;2023-12-20T15:10:28;9.80;1.00
25512;DHT22;13414;44.534;18.700;2023-12-20T15:12:56;9.70;1.00
25512;DHT22;13414;44.534;18.700;2023-12-20T15:15:24;9.60;1.00
25512;DHT22;13414;44.534;18.700;2023-12-20T15:21:18;9.50;1.00
25512;DHT22;13414;44.534;18.700;2023-12-20T15:23:45;9.40;1.00
25512;DHT22;13414;44.534;18.700;2023-12-20T15:26:18;9.30;1.00
25512;DHT22;13414;44.534;18.700;2023-12-20T15:28:46;9.30;1.00
25512;DHT22;13414;44.534;18.700;2023-12-20T15:31:14;9.30;1.00
25512;DHT22;13414;44.534;18.700;2023-12-20T15:33:43;9.20;1.00
25512;DHT22;13414;44.534;18.700;2023-12-20T15:36:14;9.20;1.00
25512;DHT22;13414;44.534;18.700;2023-12-20T15:38:43;9.20;1.00
25512;DHT22;13414;44.534;18.700;2023-12-20T15:41:17;9.20;1.00
25512;DHT22;13414;44.534;18.700;2023-12-20T15:43:45;9.20;1.00
25512;DHT22;13414;44.534;18.700;2023-12-20T15:46:13;9.10;1.00
25512;DHT22;13414;44.534;18.700;2023-12-20T15:48:41;9.10;1.00
25512;DHT22;13414;44.534;18.700;2023-12-20T15:51:09;9.00;1.00